< < Back
Terminal Aerodrome Forecast


Current Version              Previous Versions:   1  2  3  4  5  6  7  8  9  

Terminal Aerodrome Forecast

189
FTUS42 KFFC 282336
TAFFTY
TAF
KFTY 282336Z 2900/2924 32007KT P6SM FEW060
      TEMPO 2900/2901 VRB12G25KT 5SM TSRA BKN030CB
     FM290200 35004KT P6SM SCT120
     FM291500 31006KT P6SM SCT050 PROB30 2920/2924 6SM -TSRA
      BKN050CB=

Latest METAR

277
SAUS70 KWBC 290000
MTRFTY
METAR KFTY 282353Z 32007G16KT 10SM CLR 31/21 A2998 RMK AO2 LTG DSNT E
SLP139 T03060211 10356 20306 53008


USA.gov is the U.S. government's official web portal to all federal, state and local government web resources and services.